Terminal Aerodrome Forecast
Issued by NWS Louisville, KY

Home | Current Version | Previous Version | Text Only | Print | Product List | Glossary On
Versions: 1 2 3 4 5 6 7 8 9 10 11 12 13 14 15 16 17
000
FTUS43 KLMK 291700
TAFSDF
TAF
KSDF 291730Z 2918/3024 27017G30KT P6SM BKN025
     FM292000 28015G30KT P6SM VCSH BKN018
     FM292300 30012KT P6SM VCSH BKN015
     FM300900 32012KT P6SM SCT015 BKN025
     FM301500 34010KT P6SM BKN035=

USA.gov is the U.S. government's official web portal to all federal, state and local government web resources and services.